Time;durP1;ratioP1;P1;durP2;ratioP2;P2;SDS_P1;SDS_P2;PMS_P1;PMS_P2;Temp;Humidity;BMP_temperature;BMP_pressure;BME280_temperature;BME280_humidity;BME280_pressure;Samples;Min_cycle;Max_cycle;Signal;HPM_P1;HPM_P2
2021/09/09 00:00:13;;;;;;;19.45;14.35;;;;;;;-146.90;100.00;60518.97;5029667;28;20017;-70
2021/09/09 00:02:38;;;;;;;22.48;16.30;;;;;;;-146.90;100.00;60518.97;5029558;28;20025;-71
2021/09/09 00:05:05;;;;;;;21.83;15.00;;;;;;;-146.90;100.00;60518.97;5029831;28;20104;-70
2021/09/09 00:07:30;;;;;;;22.80;15.77;;;;;;;-146.90;100.00;60518.97;5029408;28;20053;-70
2021/09/09 00:09:56;;;;;;;20.17;15.20;;;;;;;-146.90;100.00;60518.97;5029846;28;20122;-70
2021/09/09 00:12:21;;;;;;;21.98;15.52;;;;;;;-146.90;100.00;60518.97;5029523;28;20017;-70
2021/09/09 00:14:46;;;;;;;21.02;15.57;;;;;;;-146.90;100.00;60518.97;5028102;28;20076;-71
2021/09/09 00:17:12;;;;;;;19.45;14.32;;;;;;;-146.90;100.00;60518.97;5029830;28;20025;-71
2021/09/09 00:19:37;;;;;;;23.50;15.65;;;;;;;-146.90;100.00;60518.97;5029430;28;20029;-70
2021/09/09 00:22:02;;;;;;;25.88;15.90;;;;;;;-146.90;100.00;60518.97;5029648;28;20032;-69
2021/09/09 00:24:28;;;;;;;21.42;15.05;;;;;;;-146.90;100.00;60518.97;5029343;28;20394;-69
2021/09/09 00:26:53;;;;;;;20.85;15.52;;;;;;;-146.90;100.00;60518.97;5029978;28;20022;-70
2021/09/09 00:29:18;;;;;;;22.63;15.50;;;;;;;-146.90;100.00;60518.97;5029257;28;20384;-70
2021/09/09 00:31:44;;;;;;;21.17;15.80;;;;;;;-146.90;100.00;60518.97;5029554;28;20049;-69
2021/09/09 00:34:09;;;;;;;23.08;16.02;;;;;;;-146.90;100.00;60518.97;5031794;28;20431;-70
2021/09/09 00:36:34;;;;;;;21.13;15.73;;;;;;;-146.90;100.00;60518.97;5033874;28;20529;-69
2021/09/09 00:39:00;;;;;;;20.27;15.75;;;;;;;-146.90;100.00;60518.97;5033130;28;20021;-71
2021/09/09 00:41:29;;;;;;;25.15;15.55;;;;;;;-146.90;100.00;60518.97;5033350;28;20410;-70
2021/09/09 00:43:54;;;;;;;23.70;16.63;;;;;;;-146.90;100.00;60518.97;5032740;28;20100;-71
2021/09/09 00:46:23;;;;;;;21.00;15.55;;;;;;;-146.90;100.00;60518.97;5033462;28;20064;-71
2021/09/09 00:48:49;;;;;;;20.25;16.27;;;;;;;-146.90;100.00;60518.97;5031778;28;20021;-71
2021/09/09 00:51:14;;;;;;;21.02;16.65;;;;;;;-146.90;100.00;60518.97;5033218;28;20075;-71
2021/09/09 00:53:41;;;;;;;23.45;15.75;;;;;;;-146.90;100.00;60518.97;5032726;28;20486;-71
2021/09/09 00:56:07;;;;;;;23.02;16.77;;;;;;;-146.90;100.00;60518.97;5033254;28;20390;-70
2021/09/09 00:58:33;;;;;;;21.77;16.25;;;;;;;-146.90;100.00;60518.97;5033037;28;20025;-71
2021/09/09 01:00:58;;;;;;;21.65;16.77;;;;;;;-146.90;100.00;60518.97;5014921;28;20048;-70
2021/09/09 01:03:23;;;;;;;21.02;15.63;;;;;;;-146.90;100.00;60518.97;5032769;28;20030;-71
2021/09/09 01:05:49;;;;;;;23.00;16.35;;;;;;;-146.90;100.00;60518.97;5032628;28;20021;-70
2021/09/09 01:08:14;;;;;;;24.80;16.95;;;;;;;-146.90;100.00;60518.97;5031561;28;20435;-69
2021/09/09 01:10:40;;;;;;;24.55;17.23;;;;;;;-146.90;100.00;60518.97;5032625;28;20119;-69
2021/09/09 01:13:09;;;;;;;32.47;17.25;;;;;;;-146.90;100.00;60518.97;5032762;28;20031;-72
2021/09/09 01:15:42;;;;;;;24.73;17.08;;;;;;;-146.90;100.00;60518.97;5031095;28;20029;-69
2021/09/09 01:18:09;;;;;;;21.83;16.55;;;;;;;-146.90;100.00;60518.97;5032828;28;20101;-69
2021/09/09 01:20:34;;;;;;;26.85;18.33;;;;;;;-146.90;100.00;60518.97;5032639;28;20031;-69
2021/09/09 01:23:00;;;;;;;23.70;17.67;;;;;;;-146.90;100.00;60518.97;5032709;28;20385;-71
2021/09/09 01:25:26;;;;;;;26.50;17.67;;;;;;;-146.90;100.00;60518.97;5032241;28;20443;-69
2021/09/09 01:27:51;;;;;;;27.95;17.88;;;;;;;-146.90;100.00;60518.97;5032728;28;20029;-69
2021/09/09 01:30:16;;;;;;;24.80;18.00;;;;;;;-146.90;100.00;60518.97;5031291;28;20025;-69
2021/09/09 01:32:42;;;;;;;23.63;16.20;;;;;;;-146.90;100.00;60518.97;5033178;28;20057;-69
2021/09/09 01:35:08;;;;;;;28.08;18.73;;;;;;;-146.90;100.00;60518.97;5032421;28;20129;-69
2021/09/09 01:37:33;;;;;;;23.48;18.48;;;;;;;-146.90;100.00;60518.97;5032564;28;20071;-69
2021/09/09 01:39:59;;;;;;;26.65;18.92;;;;;;;-146.90;100.00;60518.97;5032036;28;20018;-70
2021/09/09 01:42:24;;;;;;;29.02;18.90;;;;;;;-146.90;100.00;60518.97;5032194;28;20025;-69
2021/09/09 01:44:49;;;;;;;25.80;18.40;;;;;;;-146.90;100.00;60518.97;5031171;28;20040;-70
2021/09/09 01:47:15;;;;;;;23.75;18.48;;;;;;;-146.90;100.00;60518.97;5031995;28;20033;-69
2021/09/09 01:49:40;;;;;;;24.98;18.30;;;;;;;-146.90;100.00;60518.97;5032085;28;20028;-70
2021/09/09 01:52:06;;;;;;;27.88;19.00;;;;;;;-146.90;100.00;60518.97;5030625;28;20025;-70
2021/09/09 01:54:31;;;;;;;24.13;18.30;;;;;;;-146.90;100.00;60518.97;5014073;28;20021;-70
2021/09/09 01:56:56;;;;;;;29.98;18.80;;;;;;;-146.90;100.00;60518.97;5031733;28;20091;-70
2021/09/09 01:59:22;;;;;;;25.40;19.63;;;;;;;-146.90;100.00;60518.97;5030965;28;20102;-70
2021/09/09 02:01:47;;;;;;;25.75;17.60;;;;;;;-146.90;100.00;60518.97;5031597;28;20053;-70
2021/09/09 02:04:12;;;;;;;35.85;20.17;;;;;;;-146.90;100.00;60518.97;5030489;28;20025;-71
2021/09/09 02:06:38;;;;;;;28.00;18.45;;;;;;;-146.90;100.00;60518.97;5030429;28;20198;-70
2021/09/09 02:09:03;;;;;;;26.20;18.02;;;;;;;-146.90;100.00;60518.97;5031774;28;20047;-70
2021/09/09 02:11:29;;;;;;;26.33;19.77;;;;;;;-146.90;100.00;60518.97;5031321;28;20033;-69
2021/09/09 02:13:54;;;;;;;29.20;20.13;;;;;;;-146.90;100.00;60518.97;5031423;28;20028;-70
2021/09/09 02:16:20;;;;;;;33.67;20.52;;;;;;;-146.90;100.00;60518.97;5031276;28;20419;-70
2021/09/09 02:18:45;;;;;;;24.42;18.88;;;;;;;-146.90;100.00;60518.97;5031504;28;20072;-69
2021/09/09 02:21:11;;;;;;;28.40;20.13;;;;;;;-146.90;100.00;60518.97;5031461;28;20044;-71
2021/09/09 02:23:37;;;;;;;28.10;18.38;;;;;;;-146.90;100.00;60518.97;5031142;28;20033;-71
2021/09/09 02:26:03;;;;;;;28.98;21.63;;;;;;;-146.90;100.00;60518.97;5031288;28;20387;-69
2021/09/09 02:28:28;;;;;;;27.30;19.98;;;;;;;-146.90;100.00;60518.97;5031058;28;20051;-69
2021/09/09 02:30:53;;;;;;;28.02;20.60;;;;;;;-146.90;100.00;60518.97;5031495;28;20478;-69
2021/09/09 02:33:19;;;;;;;31.60;21.92;;;;;;;-146.90;100.00;60518.97;5030988;28;20071;-69
2021/09/09 02:35:44;;;;;;;26.77;20.75;;;;;;;-146.90;100.00;60518.97;5031462;28;20429;-71
2021/09/09 02:38:09;;;;;;;28.10;22.13;;;;;;;-146.90;100.00;60518.97;5031515;28;20106;-71
2021/09/09 02:40:35;;;;;;;28.65;20.33;;;;;;;-146.90;100.00;60518.97;5031217;28;20163;-69
2021/09/09 02:43:00;;;;;;;25.80;20.67;;;;;;;-146.90;100.00;60518.97;5030725;28;20029;-70
2021/09/09 02:45:26;;;;;;;27.88;22.83;;;;;;;-146.90;100.00;60518.97;5031139;28;20116;-68
2021/09/09 02:47:51;;;;;;;32.97;20.35;;;;;;;-146.90;100.00;60518.97;5030830;28;20103;-69
2021/09/09 02:50:16;;;;;;;27.05;21.98;;;;;;;-146.90;100.00;60518.97;5030873;28;20108;-72
2021/09/09 02:52:42;;;;;;;36.08;22.42;;;;;;;-146.90;100.00;60518.97;5029505;28;20320;-70
2021/09/09 02:55:08;;;;;;;34.65;21.35;;;;;;;-146.90;100.00;60518.97;5030642;28;20028;-71
2021/09/09 02:57:34;;;;;;;29.77;22.10;;;;;;;-146.90;100.00;60518.97;5030767;28;20111;-69
2021/09/09 02:59:59;;;;;;;30.30;22.45;;;;;;;-146.90;100.00;60518.97;5030878;28;20492;-69
2021/09/09 03:02:25;;;;;;;30.85;21.63;;;;;;;-146.90;100.00;60518.97;5030576;28;20416;-70
2021/09/09 03:04:51;;;;;;;31.35;23.25;;;;;;;-146.90;100.00;60518.97;5029110;28;20037;-70
2021/09/09 03:07:16;;;;;;;30.27;22.50;;;;;;;-146.90;100.00;60518.97;5030641;28;20029;-70
2021/09/09 03:09:42;;;;;;;34.42;22.00;;;;;;;-146.90;100.00;60518.97;5030201;28;20021;-70
2021/09/09 03:12:07;;;;;;;34.58;23.60;;;;;;;-146.90;100.00;60518.97;5030461;28;20026;-70
2021/09/09 03:14:32;;;;;;;34.42;23.52;;;;;;;-146.90;100.00;60518.97;5030000;28;20032;-70
2021/09/09 03:16:58;;;;;;;32.42;21.58;;;;;;;-146.90;100.00;60518.97;5030567;28;20079;-69
2021/09/09 03:19:23;;;;;;;31.25;24.02;;;;;;;-146.90;100.00;60518.97;5030117;28;20017;-71
2021/09/09 03:21:48;;;;;;;34.08;23.95;;;;;;;-146.90;100.00;60518.97;5030343;28;20479;-70
2021/09/09 03:24:15;;;;;;;30.65;22.80;;;;;;;-146.90;100.00;60518.97;5012126;28;20034;-71
2021/09/09 03:26:40;;;;;;;34.80;24.33;;;;;;;-146.90;100.00;60518.97;5030466;28;20021;-69
2021/09/09 03:29:06;;;;;;;34.00;23.77;;;;;;;-146.90;100.00;60518.97;5030311;28;20405;-70
2021/09/09 03:31:31;;;;;;;32.58;24.73;;;;;;;-146.90;100.00;60518.97;5030463;28;20507;-70
2021/09/09 03:33:57;;;;;;;35.53;25.48;;;;;;;-146.90;100.00;60518.97;5030586;28;20024;-70
2021/09/09 03:36:22;;;;;;;32.88;25.63;;;;;;;-146.90;100.00;60518.97;5029743;28;20437;-69
2021/09/09 03:38:47;;;;;;;42.08;26.55;;;;;;;-146.90;100.00;60518.97;5030356;28;20052;-70
2021/09/09 03:41:13;;;;;;;34.97;25.33;;;;;;;-146.90;100.00;60518.97;5029104;28;20517;-69
2021/09/09 03:43:38;;;;;;;37.20;26.05;;;;;;;-146.90;100.00;60518.97;5028730;28;20025;-69
2021/09/09 03:46:04;;;;;;;37.17;26.35;;;;;;;-146.90;100.00;60518.97;5029735;28;20030;-69
2021/09/09 03:48:29;;;;;;;39.20;25.88;;;;;;;-146.90;100.00;60518.97;5029997;28;20104;-70
2021/09/09 03:50:55;;;;;;;35.42;27.13;;;;;;;-146.90;100.00;60518.97;5029669;28;20047;-69
2021/09/09 03:53:20;;;;;;;35.50;25.88;;;;;;;-146.90;100.00;60518.97;5029736;28;20025;-70
2021/09/09 03:55:45;;;;;;;37.47;27.08;;;;;;;-146.90;100.00;60518.97;5029597;28;20032;-71
2021/09/09 03:58:11;;;;;;;36.50;26.20;;;;;;;-146.90;100.00;60518.97;5028595;28;20371;-69
2021/09/09 04:00:36;;;;;;;37.55;26.52;;;;;;;-146.90;100.00;60518.97;5029562;28;20121;-70
2021/09/09 04:03:03;;;;;;;35.53;25.88;;;;;;;-146.90;100.00;60518.97;5029789;28;20470;-71
2021/09/09 04:05:29;;;;;;;31.83;24.33;;;;;;;-146.90;100.00;60518.97;5029294;28;20037;-69
2021/09/09 04:07:54;;;;;;;36.72;25.55;;;;;;;-146.90;100.00;60518.97;5031552;28;20151;-70
2021/09/09 04:10:19;;;;;;;38.45;26.83;;;;;;;-146.90;100.00;60518.97;5035953;28;20021;-70
2021/09/09 04:12:44;;;;;;;35.55;25.63;;;;;;;-146.90;100.00;60518.97;5036278;28;20025;-69
2021/09/09 04:15:10;;;;;;;38.03;27.38;;;;;;;-146.90;100.00;60518.97;5035845;28;20098;-70
2021/09/09 04:17:36;;;;;;;35.03;25.60;;;;;;;-146.90;100.00;60518.97;5036053;28;20044;-69
2021/09/09 04:20:01;;;;;;;33.70;26.60;;;;;;;-146.90;100.00;60518.97;5034708;28;20025;-68
2021/09/09 04:22:26;;;;;;;36.92;26.77;;;;;;;-146.90;100.00;60518.97;5034560;28;20025;-68
2021/09/09 04:24:52;;;;;;;38.42;26.80;;;;;;;-146.90;100.00;60518.97;5034776;28;20029;-69
2021/09/09 04:27:21;;;;;;;34.90;27.02;;;;;;;-146.90;100.00;60518.97;5035739;28;20075;-69
2021/09/09 04:29:47;;;;;;;36.22;26.58;;;;;;;-146.90;100.00;60518.97;5034906;28;20055;-70
2021/09/09 04:32:12;;;;;;;35.42;26.60;;;;;;;-146.90;100.00;60518.97;5035770;28;20467;-69
2021/09/09 04:34:37;;;;;;;43.50;26.92;;;;;;;-146.90;100.00;60518.97;5036158;28;20124;-70
2021/09/09 04:37:03;;;;;;;34.67;24.90;;;;;;;-146.90;100.00;60518.97;5035768;28;20021;-68
2021/09/09 04:39:28;;;;;;;38.45;27.08;;;;;;;-146.90;100.00;60518.97;5036061;28;20470;-69
2021/09/09 04:41:54;;;;;;;33.13;26.05;;;;;;;-146.90;100.00;60518.97;5035826;28;20056;-70
2021/09/09 04:44:19;;;;;;;33.50;24.85;;;;;;;-146.90;100.00;60518.97;5035993;28;20069;-69
2021/09/09 04:46:44;;;;;;;34.47;24.50;;;;;;;-146.90;100.00;60518.97;5034731;28;20412;-69
2021/09/09 04:49:09;;;;;;;33.10;24.73;;;;;;;-146.90;100.00;60518.97;5036020;28;20029;-70
2021/09/09 04:51:35;;;;;;;40.10;26.00;;;;;;;-146.90;100.00;60518.97;5035334;28;20022;-71
2021/09/09 04:54:01;;;;;;;34.78;26.83;;;;;;;-146.90;100.00;60518.97;5035600;28;20594;-69
2021/09/09 04:56:26;;;;;;;34.88;26.00;;;;;;;-146.90;100.00;60518.97;5035509;28;20203;-70
2021/09/09 04:58:52;;;;;;;39.83;28.50;;;;;;;-146.90;100.00;60518.97;5035911;28;20021;-69
2021/09/09 05:01:17;;;;;;;32.80;25.17;;;;;;;-146.90;100.00;60518.97;5035230;28;20104;-70
2021/09/09 05:03:42;;;;;;;35.88;27.30;;;;;;;-146.90;100.00;60518.97;5034792;28;20048;-70
2021/09/09 05:06:08;;;;;;;35.80;26.73;;;;;;;-146.90;100.00;60518.97;5035501;28;20398;-71
2021/09/09 05:08:34;;;;;;;34.47;25.77;;;;;;;-146.90;100.00;60518.97;5035304;28;20032;-69
2021/09/09 05:10:59;;;;;;;36.17;27.65;;;;;;;-146.90;100.00;60518.97;5035444;28;20025;-70
2021/09/09 05:13:25;;;;;;;37.03;27.60;;;;;;;-146.90;100.00;60518.97;5035296;28;20063;-70
2021/09/09 05:15:50;;;;;;;31.40;24.95;;;;;;;-146.90;100.00;60518.97;5035386;28;20067;-69
2021/09/09 05:18:15;;;;;;;38.55;26.73;;;;;;;-146.90;100.00;60518.97;5034068;28;20033;-70
2021/09/09 05:20:41;;;;;;;37.75;24.92;;;;;;;-146.90;100.00;60518.97;5032034;28;20040;-71
2021/09/09 05:23:06;;;;;;;36.55;26.20;;;;;;;-146.90;100.00;60518.97;5031914;28;20030;-70
2021/09/09 05:25:31;;;;;;;36.08;26.30;;;;;;;-146.90;100.00;60518.97;5032084;28;20040;-70
2021/09/09 05:27:57;;;;;;;35.25;25.10;;;;;;;-146.90;100.00;60518.97;5031742;28;20033;-69
2021/09/09 05:30:22;;;;;;;32.15;23.90;;;;;;;-146.90;100.00;60518.97;5032041;28;20072;-72
2021/09/09 05:32:47;;;;;;;30.42;25.55;;;;;;;-146.90;100.00;60518.97;5032243;28;20018;-69
2021/09/09 05:35:13;;;;;;;38.47;26.17;;;;;;;-146.90;100.00;60518.97;5032749;28;20052;-69
2021/09/09 05:37:38;;;;;;;45.67;27.75;;;;;;;-146.90;100.00;60518.97;5032235;28;20104;-69
2021/09/09 05:40:05;;;;;;;37.85;27.33;;;;;;;-146.90;100.00;60518.97;5031350;28;20410;-69
2021/09/09 05:42:30;;;;;;;40.25;26.30;;;;;;;-146.90;100.00;60518.97;5032703;28;20459;-69
2021/09/09 05:44:55;;;;;;;37.92;27.42;;;;;;;-146.90;100.00;60518.97;5032793;28;20033;-70
2021/09/09 05:47:21;;;;;;;36.92;27.60;;;;;;;-146.90;100.00;60518.97;5031242;28;20033;-71
2021/09/09 05:49:47;;;;;;;37.15;27.73;;;;;;;-146.90;100.00;60518.97;5031138;28;20025;-71
2021/09/09 05:52:12;;;;;;;41.53;26.02;;;;;;;-146.90;100.00;60518.97;5032771;28;20031;-70
2021/09/09 05:54:37;;;;;;;41.15;25.48;;;;;;;-146.90;100.00;60518.97;5031826;28;20021;-71
2021/09/09 05:57:03;;;;;;;33.78;25.85;;;;;;;-146.90;100.00;60518.97;5031148;28;20113;-70
2021/09/09 05:59:28;;;;;;;33.28;25.55;;;;;;;-146.90;100.00;60518.97;5031989;28;20051;-71
2021/09/09 06:01:54;;;;;;;38.22;27.05;;;;;;;-146.90;100.00;60518.97;5032288;28;20029;-70
2021/09/09 06:04:20;;;;;;;34.13;25.10;;;;;;;-146.90;100.00;60518.97;5030667;28;20387;-71
2021/09/09 06:06:46;;;;;;;33.65;25.88;;;;;;;-146.90;100.00;60518.97;5014412;28;20031;-70
2021/09/09 06:09:12;;;;;;;37.40;25.98;;;;;;;-146.90;100.00;60518.97;5030775;28;20117;-70
2021/09/09 06:11:38;;;;;;;33.72;25.33;;;;;;;-146.90;100.00;60518.97;5032173;28;20394;-70
2021/09/09 06:14:04;;;;;;;34.17;23.70;;;;;;;-146.90;100.00;60518.97;5031932;28;20077;-70
2021/09/09 06:16:29;;;;;;;43.33;24.75;;;;;;;-146.90;100.00;60518.97;5030652;28;20037;-69
2021/09/09 06:18:55;;;;;;;37.50;25.08;;;;;;;-146.90;100.00;60518.97;5031398;28;20025;-71
2021/09/09 06:21:21;;;;;;;32.00;23.75;;;;;;;-146.90;100.00;60518.97;5031327;28;20104;-71
2021/09/09 06:23:46;;;;;;;41.17;25.15;;;;;;;-146.90;100.00;60518.97;5030754;28;20025;-70
2021/09/09 06:26:11;;;;;;;31.95;24.95;;;;;;;-146.90;100.00;60518.97;5031083;28;20113;-70
2021/09/09 06:28:37;;;;;;;36.50;24.45;;;;;;;-146.90;100.00;60518.97;5029601;28;20505;-71
2021/09/09 06:31:02;;;;;;;30.50;23.90;;;;;;;-146.90;100.00;60518.97;5030581;28;20025;-69
2021/09/09 06:33:27;;;;;;;33.70;23.15;;;;;;;-146.90;100.00;60518.97;5030944;28;20029;-70
2021/09/09 06:35:53;;;;;;;29.42;23.23;;;;;;;-146.90;100.00;60518.97;5030686;28;20021;-70
2021/09/09 06:38:18;;;;;;;34.35;24.83;;;;;;;-146.90;100.00;60518.97;5031213;28;20120;-70
2021/09/09 06:40:43;;;;;;;31.05;24.17;;;;;;;-146.90;100.00;60518.97;5031016;28;20036;-69
2021/09/09 06:43:09;;;;;;;35.92;24.27;;;;;;;-146.90;100.00;60518.97;5031503;28;20375;-70
2021/09/09 06:45:35;;;;;;;33.67;23.55;;;;;;;-146.90;100.00;60518.97;5031857;28;20072;-70
2021/09/09 06:48:00;;;;;;;35.40;24.85;;;;;;;-146.90;100.00;60518.97;5044710;28;20566;-70
2021/09/09 06:50:25;;;;;;;35.25;24.85;;;;;;;-146.90;100.00;60518.97;5029412;28;20514;-69
2021/09/09 06:52:51;;;;;;;33.20;25.02;;;;;;;-146.90;100.00;60518.97;5029499;28;20025;-70
2021/09/09 06:55:16;;;;;;;34.45;24.13;;;;;;;-146.90;100.00;60518.97;5029449;28;20402;-70
2021/09/09 06:57:41;;;;;;;31.45;23.90;;;;;;;-146.90;100.00;60518.97;5030502;28;20391;-70
2021/09/09 07:00:07;;;;;;;32.40;23.50;;;;;;;-146.90;100.00;60518.97;5030190;28;20478;-70
2021/09/09 07:02:32;;;;;;;40.22;23.60;;;;;;;-146.90;100.00;60518.97;5030339;28;20030;-69
2021/09/09 07:04:58;;;;;;;29.88;23.10;;;;;;;-146.90;100.00;60518.97;5030388;28;20308;-70
2021/09/09 07:07:23;;;;;;;33.30;22.33;;;;;;;-146.90;100.00;60518.97;5028518;28;20029;-70
2021/09/09 07:09:48;;;;;;;29.15;22.25;;;;;;;-146.90;100.00;60518.97;5030390;28;20034;-70
2021/09/09 07:12:14;;;;;;;28.20;21.00;;;;;;;-146.90;100.00;60518.97;5030007;28;20025;-70
2021/09/09 07:14:39;;;;;;;31.83;21.23;;;;;;;-146.90;100.00;60518.97;5028832;28;20034;-72
2021/09/09 07:17:04;;;;;;;29.17;20.13;;;;;;;-146.90;100.00;60518.97;5030021;28;20369;-70
2021/09/09 07:19:30;;;;;;;26.52;20.65;;;;;;;-146.90;100.00;60518.97;5029852;28;20538;-70
2021/09/09 07:21:55;;;;;;;32.28;23.48;;;;;;;-146.90;100.00;60518.97;5029941;28;20100;-69
2021/09/09 07:24:20;;;;;;;30.08;20.48;;;;;;;-146.90;100.00;60518.97;5030113;28;20021;-70
2021/09/09 07:26:46;;;;;;;28.17;19.83;;;;;;;-146.90;100.00;60518.97;5029637;28;20422;-72
2021/09/09 07:29:13;;;;;;;28.13;19.45;;;;;;;-146.90;100.00;60518.97;5028592;28;20403;-71
2021/09/09 07:31:40;;;;;;;31.25;18.75;;;;;;;-146.90;100.00;60518.97;5029566;28;20017;-70
2021/09/09 07:34:05;;;;;;;34.22;20.67;;;;;;;-146.90;100.00;60518.97;5030272;28;20022;-70
2021/09/09 07:36:30;;;;;;;29.05;19.67;;;;;;;-146.90;100.00;60518.97;5029462;28;20087;-70
2021/09/09 07:38:55;;;;;;;24.73;19.35;;;;;;;-146.90;100.00;60518.97;5029641;28;20662;-70
2021/09/09 07:41:21;;;;;;;26.27;17.98;;;;;;;-146.90;100.00;60518.97;5029329;28;20390;-71
2021/09/09 07:43:46;;;;;;;23.52;17.00;;;;;;;-146.90;100.00;60518.97;5028846;28;20029;-69
2021/09/09 07:46:11;;;;;;;21.63;16.90;;;;;;;-146.90;100.00;60518.97;5029466;28;20028;-70
2021/09/09 07:48:37;;;;;;;23.90;17.35;;;;;;;-146.90;100.00;60518.97;5029220;28;20394;-71
2021/09/09 07:51:02;;;;;;;27.92;17.20;;;;;;;-146.90;100.00;60518.97;5028949;28;20475;-69
2021/09/09 07:53:27;;;;;;;28.15;17.50;;;;;;;-146.90;100.00;60518.97;5028642;28;20048;-72
2021/09/09 07:55:52;;;;;;;27.05;17.75;;;;;;;-146.90;100.00;60518.97;5029663;28;20036;-70
2021/09/09 07:58:18;;;;;;;21.92;16.25;;;;;;;-146.90;100.00;60518.97;5029289;28;20029;-70
2021/09/09 08:00:43;;;;;;;23.38;14.98;;;;;;;-146.90;100.00;60518.97;5029559;28;20021;-70
2021/09/09 08:03:08;;;;;;;22.58;15.32;;;;;;;-146.90;100.00;60518.97;5042430;28;20029;-70
2021/09/09 08:05:34;;;;;;;22.02;15.23;;;;;;;-146.90;100.00;60518.97;5049259;28;20021;-72
2021/09/09 08:07:59;;;;;;;25.20;16.30;;;;;;;-146.90;100.00;60518.97;5049304;28;20083;-70
2021/09/09 08:10:25;;;;;;;22.40;14.65;;;;;;;-146.90;100.00;60518.97;5049418;28;20074;-70
2021/09/09 08:12:50;;;;;;;29.88;15.77;;;;;;;-146.90;100.00;60518.97;5049414;28;20083;-70
2021/09/09 08:15:16;;;;;;;23.00;15.77;;;;;;;-146.90;100.00;60518.97;5048978;28;20426;-73
2021/09/09 08:17:42;;;;;;;21.92;15.43;;;;;;;-146.90;100.00;60518.97;5047921;28;20025;-72
2021/09/09 08:20:09;;;;;;;26.23;16.33;;;;;;;-146.90;100.00;60518.97;5047447;28;20060;-72
2021/09/09 08:22:34;;;;;;;23.23;17.15;;;;;;;-146.90;100.00;60518.97;5047648;28;20029;-70
2021/09/09 08:25:00;;;;;;;20.45;15.75;;;;;;;-146.90;100.00;60518.97;5047355;28;20036;-71
2021/09/09 08:27:29;;;;;;;28.95;17.10;;;;;;;-146.90;100.00;60518.97;5047731;28;20024;-70
2021/09/09 08:29:54;;;;;;;32.80;17.70;;;;;;;-146.90;100.00;60518.97;5049345;28;20021;-71
2021/09/09 08:32:20;;;;;;;23.75;17.05;;;;;;;-146.90;100.00;60518.97;5048916;28;20032;-70
2021/09/09 08:34:45;;;;;;;24.23;16.23;;;;;;;-146.90;100.00;60518.97;5049377;28;20100;-71
2021/09/09 08:37:10;;;;;;;28.08;17.25;;;;;;;-146.90;100.00;60518.97;5048925;28;20091;-70
2021/09/09 08:39:36;;;;;;;28.00;18.45;;;;;;;-146.90;100.00;60518.97;5049606;28;20032;-72
2021/09/09 08:42:01;;;;;;;24.33;17.80;;;;;;;-146.90;100.00;60518.97;5049125;28;20031;-70
2021/09/09 08:44:27;;;;;;;27.77;17.75;;;;;;;-146.90;100.00;60518.97;5049518;28;20108;-71
2021/09/09 08:46:52;;;;;;;29.45;17.98;;;;;;;-146.90;100.00;60518.97;5050206;28;20017;-71
2021/09/09 08:49:25;;;;;;;25.50;18.38;;;;;;;-146.90;100.00;60518.97;5049866;28;20448;-70
2021/09/09 08:51:53;;;;;;;30.60;18.98;;;;;;;-146.90;100.00;60518.97;5049519;28;20120;-71
2021/09/09 08:54:19;;;;;;;29.23;18.35;;;;;;;-146.90;100.00;60518.97;5049378;28;20478;-72
2021/09/09 08:56:44;;;;;;;30.02;19.35;;;;;;;-146.90;100.00;60518.97;5052393;28;20029;-71
2021/09/09 08:59:10;;;;;;;30.05;18.40;;;;;;;-146.90;100.00;60518.97;5052283;28;20029;-70
2021/09/09 09:01:35;;;;;;;37.85;18.27;;;;;;;-146.90;100.00;60518.97;5052992;28;20025;-72
2021/09/09 09:04:06;;;;;;;26.75;18.02;;;;;;;-146.90;100.00;60518.97;5051820;28;20056;-71
2021/09/09 09:06:34;;;;;;;35.08;18.15;;;;;;;-146.90;100.00;60518.97;5053431;28;20025;-72
2021/09/09 09:09:04;;;;;;;29.73;18.73;;;;;;;-146.90;100.00;60518.97;5052880;28;20028;-71
2021/09/09 09:11:41;;;;;;;22.55;16.33;;;;;;;-146.90;100.00;60518.97;5051008;28;20025;-71
2021/09/09 09:14:08;;;;;;;26.33;18.75;;;;;;;-146.90;100.00;60518.97;5053029;28;20204;-71
2021/09/09 09:16:34;;;;;;;24.52;17.73;;;;;;;-146.90;100.00;60518.97;5052669;28;20025;-71
2021/09/09 09:19:01;;;;;;;23.35;15.60;;;;;;;-146.90;100.00;60518.97;5052677;28;20027;-71
2021/09/09 09:21:28;;;;;;;23.83;16.90;;;;;;;-146.90;100.00;60518.97;5051618;28;20021;-71
2021/09/09 09:23:56;;;;;;;24.80;17.40;;;;;;;-146.90;100.00;60518.97;5052499;28;20052;-72
2021/09/09 09:26:21;;;;;;;28.45;17.27;;;;;;;-146.90;100.00;60518.97;5051009;28;20029;-70
2021/09/09 09:28:52;;;;;;;28.30;17.88;;;;;;;-146.90;100.00;60518.97;5052566;28;20671;-70
2021/09/09 09:31:45;;;;;;;24.30;16.00;;;;;;;-146.90;100.00;60518.97;5051411;28;20346;-71
2021/09/09 09:34:10;;;;;;;27.95;18.17;;;;;;;-146.90;100.00;60518.97;5052494;28;20013;-72
2021/09/09 09:36:40;;;;;;;25.95;17.33;;;;;;;-146.90;100.00;60518.97;5050188;28;20436;-71
2021/09/09 09:39:13;;;;;;;28.00;18.55;;;;;;;-146.90;100.00;60518.97;5033710;28;20049;-72
2021/09/09 09:41:41;;;;;;;23.92;17.60;;;;;;;-146.90;100.00;60518.97;5045985;28;20108;-71
2021/09/09 09:44:08;;;;;;;28.33;17.63;;;;;;;-146.90;100.00;60518.97;5038366;28;20260;-71
2021/09/09 09:46:41;;;;;;;27.80;17.38;;;;;;;-146.90;100.00;60518.97;5044660;28;20421;-71
2021/09/09 09:49:17;;;;;;;22.90;16.80;;;;;;;-146.90;100.00;60518.97;5051630;28;20025;-72
2021/09/09 09:51:44;;;;;;;23.77;16.77;;;;;;;-146.90;100.00;60518.97;5042486;28;20487;-71
2021/09/09 09:54:11;;;;;;;27.77;17.00;;;;;;;-146.90;100.00;60518.97;5031148;28;20013;-72
2021/09/09 09:56:40;;;;;;;34.65;18.27;;;;;;;-146.90;100.00;60518.97;5031795;28;20086;-72
2021/09/09 09:59:05;;;;;;;21.30;14.73;;;;;;;-146.90;100.00;60518.97;5030446;28;20475;-71
2021/09/09 10:01:31;;;;;;;26.00;16.85;;;;;;;-146.90;100.00;60518.97;5051419;28;20113;-73
2021/09/09 10:04:00;;;;;;;18.98;14.98;;;;;;;-146.90;100.00;60518.97;5042506;28;20071;-70
2021/09/09 10:06:26;;;;;;;28.83;16.55;;;;;;;-146.90;100.00;60518.97;5048821;28;20033;-71
2021/09/09 10:08:51;;;;;;;25.58;15.85;;;;;;;-146.90;100.00;60518.97;5050611;28;20329;-70
2021/09/09 10:11:17;;;;;;;24.40;15.48;;;;;;;-146.90;100.00;60518.97;5049498;28;20040;-71
2021/09/09 10:13:42;;;;;;;27.63;15.95;;;;;;;-146.90;100.00;60518.97;5045525;28;20021;-72
2021/09/09 10:16:08;;;;;;;24.80;15.93;;;;;;;-146.90;100.00;60518.97;5048374;28;20124;-71
2021/09/09 10:18:33;;;;;;;21.77;16.05;;;;;;;-146.90;100.00;60518.97;5043823;28;20402;-71
2021/09/09 10:21:02;;;;;;;23.63;16.25;;;;;;;-146.90;100.00;60518.97;5030384;28;20033;-71
2021/09/09 10:23:28;;;;;;;19.95;14.52;;;;;;;-146.90;100.00;60518.97;5033628;28;20025;-71
2021/09/09 10:25:57;;;;;;;23.33;14.68;;;;;;;-146.90;100.00;60518.97;5029870;28;20032;-70
2021/09/09 10:28:45;;;;;;;23.33;15.55;;;;;;;-146.90;100.00;60518.97;5029001;28;20025;-70
2021/09/09 10:31:15;;;;;;;18.25;13.70;;;;;;;-146.90;100.00;60518.97;5029914;28;20029;-71
2021/09/09 10:33:43;;;;;;;25.63;14.93;;;;;;;-146.90;100.00;60518.97;5029834;28;20025;-71
2021/09/09 10:36:44;;;;;;;25.42;15.63;;;;;;;-146.90;100.00;60518.97;5029999;28;20033;-70
2021/09/09 10:39:45;;;;;;;24.30;15.93;;;;;;;-146.90;100.00;60518.97;5030635;28;20438;-71
2021/09/09 10:42:39;;;;;;;33.70;16.60;;;;;;;-146.90;100.00;60518.97;5030101;28;20018;-70
2021/09/09 10:45:06;;;;;;;21.73;14.57;;;;;;;-146.90;100.00;60518.97;5030302;28;20037;-71
2021/09/09 10:47:49;;;;;;;20.00;14.60;;;;;;;-146.90;100.00;60518.97;5029033;28;20390;-71
2021/09/09 10:50:14;;;;;;;22.75;14.02;;;;;;;-146.90;100.00;60518.97;5029192;28;20021;-71